地図

経路データ

SID SEASON NUMBER BASIN SUBBASIN NAME ISO_TIME NATURE LAT LON WMO_WIND WMO_PRES WMO_AGENCY TRACK_TYPE DIST2LAND LANDFALL IFLAG USA_AGENCY USA_ATCF_ID USA_LAT USA_LON USA_RECORD USA_STATUS USA_WIND USA_PRES USA_SSHS USA_R34_NE USA_R34_SE USA_R34_SW USA_R34_NW USA_R50_NE USA_R50_SE USA_R50_SW USA_R50_NW USA_R64_NE USA_R64_SE USA_R64_SW USA_R64_NW USA_POCI USA_ROCI USA_RMW USA_EYE TOKYO_LAT TOKYO_LON TOKYO_GRADE TOKYO_WIND TOKYO_PRES TOKYO_R50_DIR TOKYO_R50_LONG TOKYO_R50_SHORT TOKYO_R30_DIR TOKYO_R30_LONG TOKYO_R30_SHORT TOKYO_LAND CMA_LAT CMA_LON CMA_CAT CMA_WIND CMA_PRES HKO_LAT HKO_LON HKO_CAT HKO_WIND HKO_PRES NEWDELHI_LAT NEWDELHI_LON NEWDELHI_GRADE NEWDELHI_WIND NEWDELHI_PRES NEWDELHI_CI NEWDELHI_DP NEWDELHI_POCI REUNION_LAT REUNION_LON REUNION_TYPE REUNION_WIND REUNION_PRES REUNION_TNUM REUNION_CI REUNION_RMW REUNION_R34_NE REUNION_R34_SE REUNION_R34_SW REUNION_R34_NW REUNION_R50_NE REUNION_R50_SE REUNION_R50_SW REUNION_R50_NW REUNION_R64_NE REUNION_R64_SE REUNION_R64_SW REUNION_R64_NW BOM_LAT BOM_LON BOM_TYPE BOM_WIND BOM_PRES BOM_TNUM BOM_CI BOM_RMW BOM_R34_NE BOM_R34_SE BOM_R34_SW BOM_R34_NW BOM_R50_NE BOM_R50_SE BOM_R50_SW BOM_R50_NW BOM_R64_NE BOM_R64_SE BOM_R64_SW BOM_R64_NW BOM_ROCI BOM_POCI BOM_EYE BOM_POS_METHOD BOM_PRES_METHOD NADI_LAT NADI_LON NADI_CAT NADI_WIND NADI_PRES WELLINGTON_LAT WELLINGTON_LON WELLINGTON_WIND WELLINGTON_PRES DS824_LAT DS824_LON DS824_STAGE DS824_WIND DS824_PRES TD9636_LAT TD9636_LON TD9636_STAGE TD9636_WIND TD9636_PRES TD9635_LAT TD9635_LON TD9635_WIND TD9635_PRES TD9635_ROCI NEUMANN_LAT NEUMANN_LON NEUMANN_CLASS NEUMANN_WIND NEUMANN_PRES MLC_LAT MLC_LON MLC_CLASS MLC_WIND MLC_PRES USA_GUST BOM_GUST BOM_GUST_PER REUNION_GUST REUNION_GUST_PER USA_SEAHGT USA_SEARAD_NE USA_SEARAD_SE USA_SEARAD_SW USA_SEARAD_NW STORM_SPEED STORM_DIR
1989205N13260 1989 66 EP MM FLOSSIE 1989-07-23 18:00:00 TS 13.2250 -100.125 25 1011 hurdat_epa main 382 377 O_________O___ hurdat_epa EP091989 13.2000 -100.000 TD 25 1011 -1 13.2000 -100.000 1 25 12 291
1989205N13260 1989 66 EP MM FLOSSIE 1989-07-23 21:00:00 TS 13.4430 -100.694 main 384 372 P_________P___ EP091989 13.4403 -100.610 TD 27 1010 -1 13.4460 -100.601 1 27 12 292
1989205N13260 1989 66 EP MM FLOSSIE 1989-07-24 00:00:00 TS 13.6750 -101.250 30 1009 hurdat_epa main 372 372 O_________O___ hurdat_epa EP091989 13.7000 -101.200 TD 30 1009 -1 13.7000 -101.200 1 30 12 295
1989205N13260 1989 66 EP MM FLOSSIE 1989-07-24 03:00:00 TS 13.9330 -101.786 main 384 366 P_________P___ EP091989 13.9923 -101.758 TD 32 1008 -1 13.9701 -101.794 1 31 12 298
1989205N13260 1989 66 EP MM FLOSSIE 1989-07-24 06:00:00 TS 14.2148 -102.317 35 1007 hurdat_epa main 369 362 O_________P___ hurdat_epa EP091989 14.3000 -102.300 TS 35 1007 0 14.2591 -102.368 1 32 12 299
1989205N13260 1989 66 EP MM FLOSSIE 1989-07-24 09:00:00 TS 14.5058 -102.867 main 367 361 P_________P___ EP091989 14.5850 -102.865 TS 35 1006 0 14.5685 -102.909 1 33 12 300
1989205N13260 1989 66 EP MM FLOSSIE 1989-07-24 12:00:00 TS 14.8250 -103.400 35 1005 hurdat_epa main 366 341 O_________O___ hurdat_epa EP091989 14.9000 -103.400 TS 35 1005 0 14.9000 -103.400 2 35 12 304
1989205N13260 1989 66 EP MM FLOSSIE 1989-07-24 15:00:00 TS 15.1883 -103.905 main 341 320 P_________P___ EP091989 15.2924 -103.887 TS 35 1004 0 15.2611 -103.846 2 35 12 308
1989205N13260 1989 66 EP MM FLOSSIE 1989-07-24 18:00:00 TS 15.5605 -104.360 35 1004 hurdat_epa main 316 297 O_________P___ hurdat_epa EP091989 15.7000 -104.300 TS 35 1004 0 15.6419 -104.240 2 35 11 311
1989205N13260 1989 66 EP MM FLOSSIE 1989-07-24 21:00:00 TS 15.9035 -104.757 main 302 283 P_________P___ EP091989 16.0574 -104.630 TS 35 1004 0 16.0269 -104.589 2 35 10 313
1989205N13260 1989 66 EP MM FLOSSIE 1989-07-25 00:00:00 TS 16.2250 -105.100 35 1004 hurdat_epa main 290 277 O_________O___ hurdat_epa EP091989 16.4000 -104.900 TS 35 1004 0 16.4000 -104.900 2 35 9 315
1989205N13260 1989 66 EP MM FLOSSIE 1989-07-25 03:00:00 TS 16.5280 -105.412 main 285 277 P_________P___ EP091989 16.7574 -105.158 TS 35 1004 0 16.7471 -105.178 2 35 8 317
1989205N13260 1989 66 EP MM FLOSSIE 1989-07-25 06:00:00 TS 16.8199 -105.681 35 1004 hurdat_epa main 284 262 O_________P___ hurdat_epa EP091989 17.1000 -105.400 TS 35 1004 0 17.0794 -105.423 2 35 8 320
1989205N13260 1989 66 EP MM FLOSSIE 1989-07-25 09:00:00 TS 17.1042 -105.920 main 262 243 P_________P___ EP091989 17.4074 -105.643 TS 35 1004 0 17.3971 -105.657 2 35 7 322
1989205N13260 1989 66 EP MM FLOSSIE 1989-07-25 12:00:00 TS 17.4000 -106.150 35 1005 hurdat_epa main 249 230 O_________O___ hurdat_epa EP091989 17.7000 -105.900 TS 35 1005 0 17.7000 -105.900 2 35 8 324
1989205N13260 1989 66 EP MM FLOSSIE 1989-07-25 15:00:00 TS 17.7353 -106.408 main 238 230 P_________P___ EP091989 18.0075 -106.193 TS 32 1006 -1 18.0137 -106.182 2 33 8 324
1989205N13260 1989 66 EP MM FLOSSIE 1989-07-25 18:00:00 TS 18.0775 -106.669 30 1007 hurdat_epa main 230 222 O_________P___ hurdat_epa EP091989 18.3000 -106.500 TD 30 1007 -1 18.3099 -106.477 2 32 8 325
1989205N13260 1989 66 EP MM FLOSSIE 1989-07-25 21:00:00 TS 18.4089 -106.910 main 222 216 P_________P___ EP091989 18.5724 -106.785 TD 30 1007 -1 18.5761 -106.785 2 31 8 322
1989205N13260 1989 66 EP MM FLOSSIE 1989-07-26 00:00:00 TS 18.7000 -107.175 30 1008 hurdat_epa main 228 223 O_________O___ hurdat_epa EP091989 18.8000 -107.100 TD 30 1008 -1 18.8000 -107.100 1 30 8 312
1989205N13260 1989 66 EP MM FLOSSIE 1989-07-26 03:00:00 TS 18.9318 -107.513 main 243 243 P_________P___ EP091989 18.9726 -107.508 TD 30 1008 -1 18.9721 -107.418 1 30 8 302
1989205N13260 1989 66 EP MM FLOSSIE 1989-07-26 06:00:00 TS 19.1006 -107.861 30 1008 hurdat_epa main 270 270 O_________P___ hurdat_epa EP091989 19.1000 -107.900 TD 30 1008 -1 19.1023 -107.743 1 30 7 295
1989205N13260 1989 66 EP MM FLOSSIE 1989-07-26 09:00:00 TS 19.2165 -108.150 main 293 293 P_________P___ EP091989 19.2073 -108.165 TD 30 1008 -1 19.2064 -108.071 1 30 6 291
1989205N13260 1989 66 EP MM FLOSSIE 1989-07-26 12:00:00 TS 19.3000 -108.425 30 1009 hurdat_epa main 308 308 O_________O___ hurdat_epa EP091989 19.3000 -108.400 TD 30 1009 -1 19.3000 -108.400 1 30 6 287
1989205N13260 1989 66 EP MM FLOSSIE 1989-07-26 15:00:00 TS 19.3821 -108.714 main 332 332 P_________P___ EP091989 19.3999 -108.685 TD 27 1009 -1 19.3786 -108.730 1 28 6 286
1989205N13260 1989 66 EP MM FLOSSIE 1989-07-26 18:00:00 TS 19.4637 -109.015 25 1009 hurdat_epa main 359 359 O_________P___ hurdat_epa EP091989 19.5000 -109.000 TD 25 1009 -1 19.4549 -109.058 1 27 6 286
1989205N13260 1989 66 EP MM FLOSSIE 1989-07-26 21:00:00 TS 19.5465 -109.333 main 383 358 P_________P___ EP091989 19.5775 -109.350 TD 25 1009 -1 19.5536 -109.383 1 26 6 289
1989205N13260 1989 66 EP MM FLOSSIE 1989-07-27 00:00:00 TS 19.6750 -109.650 25 1009 hurdat_epa main 357 335 O_________O___ hurdat_epa EP091989 19.7000 -109.700 TD 25 1009 -1 19.7000 -109.700 1 25 7 300
1989205N13260 1989 66 EP MM FLOSSIE 1989-07-27 03:00:00 TS 19.8756 -109.940 main 335 313 P_________P___ EP091989 19.9199 -110.008 TD 25 1009 -1 19.9002 -110.011 1 25 7 310
1989205N13260 1989 66 EP MM FLOSSIE 1989-07-27 06:00:00 TS 20.1381 -110.229 25 1010 hurdat_epa main 313 284 O_________P___ hurdat_epa EP091989 20.2000 -110.300 TD 25 1010 -1 20.1523 -110.315 1 25 8 315
1989205N13260 1989 66 EP MM FLOSSIE 1989-07-27 09:00:00 TS 20.4358 -110.537 main 284 248 P_________P___ EP091989 20.4850 -110.600 TD 25 1010 -1 20.4533 -110.612 1 25 9 318
1989205N13260 1989 66 EP MM FLOSSIE 1989-07-27 12:00:00 TS 20.7750 -110.850 25 1010 hurdat_epa main 252 230 O_________O___ hurdat_epa EP091989 20.8000 -110.900 TD 25 1010 -1 20.8000 -110.900 1 25 9 319
1989205N13260 1989 66 EP MM FLOSSIE 1989-07-27 15:00:00 TS 21.1212 -111.165 main 236 212 P_________P___ EP091989 21.1200 -111.208 TD 25 1010 -1 21.1674 -111.188 1 25 9 322
1989205N13260 1989 66 EP MM FLOSSIE 1989-07-27 18:00:00 TS 21.5209 -111.471 25 1010 hurdat_epa main 219 201 O_________P___ hurdat_epa EP091989 21.5000 -111.500 TD 25 1010 -1 21.5783 -111.467 1 25 10 328
1989205N13260 1989 66 EP MM FLOSSIE 1989-07-27 21:00:00 TS 21.9918 -111.745 main 201 196 P_________P___ EP091989 21.9774 -111.758 TD 25 1010 -1 22.0251 -111.738 1 25 11 333
1989205N13260 1989 66 EP MM FLOSSIE 1989-07-28 00:00:00 TS 22.5000 -112.000 25 1010 hurdat_epa main 196 166 O_________O___ hurdat_epa EP091989 22.5000 -112.000 TD 25 1010 -1 22.5000 -112.000 1 25 11 335
1989205N13260 1989 66 EP MM FLOSSIE 1989-07-28 03:00:00 TS 23.0034 -112.249 main 166 132 P_________P___ EP091989 23.0076 -112.247 TD 25 1010 -1 22.9950 -112.252 1 25 11 335
1989205N13260 1989 66 EP MM FLOSSIE 1989-07-28 06:00:00 TS 23.5000 -112.500 25 1010 hurdat_epa main 132 O_________O___ hurdat_epa EP091989 23.5000 -112.500 TD 25 1010 -1 23.5000 -112.500 1 25 11 335

IBTrACS Databaseについて

本データベースは、米国NOAAが公開する1842年以降の世界の熱帯低気圧のベストトラックデータアーカイブInternational Best Track Archive for Climate Stewardship (IBTrACS)を、ウェブで閲覧しやすい形式に変換したものです。

最終更新日:2021-12-01